createdAt,value
2018-06-21T00:00:58.894Z,21.20
2018-06-21T00:06:02.123Z,21.10
2018-06-21T00:11:05.281Z,21.10
2018-06-21T00:16:08.438Z,20.80
2018-06-21T00:21:11.615Z,20.80
2018-06-21T00:26:14.747Z,20.80
2018-06-21T00:31:17.930Z,20.80
2018-06-21T00:36:22.161Z,20.70
2018-06-21T00:41:25.445Z,20.60
2018-06-21T00:46:28.611Z,20.60
2018-06-21T00:51:32.839Z,20.50
2018-06-21T00:56:36.022Z,20.50
2018-06-21T01:01:39.281Z,20.40
2018-06-21T01:06:42.464Z,20.30
2018-06-21T01:11:45.625Z,20.30
2018-06-21T01:16:48.882Z,20.40
2018-06-21T01:21:52.054Z,20.50
2018-06-21T01:26:55.202Z,20.40
2018-06-21T01:31:58.390Z,20.30
2018-06-21T01:37:01.536Z,20.30
2018-06-21T01:42:04.713Z,20.10
2018-06-21T01:47:08.982Z,20.10
2018-06-21T01:52:12.154Z,20.10
2018-06-21T01:57:15.302Z,20.00
2018-06-21T02:02:18.458Z,20.00
2018-06-21T02:07:21.690Z,19.90
2018-06-21T02:12:24.936Z,19.70
2018-06-21T02:17:28.148Z,19.70
2018-06-21T02:22:31.627Z,19.80
2018-06-21T02:27:34.818Z,19.80
2018-06-21T02:32:37.986Z,19.70
2018-06-21T02:37:41.162Z,19.60
2018-06-21T02:42:44.338Z,19.60
2018-06-21T02:47:47.517Z,19.60
2018-06-21T02:52:50.711Z,19.60
2018-06-21T02:57:54.277Z,19.40
2018-06-21T03:02:57.498Z,19.30
2018-06-21T03:08:00.672Z,19.30
2018-06-21T03:13:03.851Z,19.30
2018-06-21T03:18:07.010Z,19.30
2018-06-21T03:23:10.175Z,19.20
2018-06-21T03:28:13.397Z,19.20
2018-06-21T03:33:16.565Z,19.30
2018-06-21T03:38:19.870Z,19.20
2018-06-21T03:43:23.028Z,19.20
2018-06-21T03:48:26.257Z,19.10
2018-06-21T03:53:29.526Z,19.00
2018-06-21T03:58:32.942Z,19.10
2018-06-21T04:03:36.123Z,19.00
2018-06-21T04:08:39.302Z,19.00
2018-06-21T04:13:42.472Z,19.00
2018-06-21T04:18:46.122Z,18.90
2018-06-21T04:23:49.287Z,19.00
2018-06-21T04:28:52.458Z,18.90
2018-06-21T04:33:56.616Z,19.00
2018-06-21T04:38:59.834Z,19.00
2018-06-21T04:44:03.171Z,19.00
2018-06-21T04:49:06.330Z,19.00
2018-06-21T04:54:10.439Z,18.90
2018-06-21T04:59:13.622Z,19.00
2018-06-21T05:04:16.850Z,19.10
2018-06-21T05:09:20.014Z,19.00
2018-06-21T05:14:23.181Z,19.00
2018-06-21T05:19:26.473Z,19.00
2018-06-21T05:24:30.163Z,19.10
2018-06-21T05:29:33.402Z,19.20
2018-06-21T05:34:36.645Z,19.20
2018-06-21T05:39:39.826Z,19.20
2018-06-21T05:44:43.070Z,19.10
2018-06-21T05:49:46.243Z,19.00
2018-06-21T05:54:49.407Z,18.70
2018-06-21T05:59:52.571Z,18.40
2018-06-21T06:04:55.743Z,18.30
2018-06-21T06:09:58.915Z,18.20
2018-06-21T06:15:03.000Z,18.00
2018-06-21T06:20:06.197Z,18.20
2018-06-21T06:25:09.314Z,18.10
2018-06-21T06:30:13.029Z,18.00
2018-06-21T06:35:16.187Z,17.90
2018-06-21T06:40:19.492Z,17.70
2018-06-21T06:45:22.642Z,17.60
2018-06-21T06:50:25.826Z,17.40
2018-06-21T06:55:28.976Z,17.10
2018-06-21T07:00:32.243Z,16.90
2018-06-21T07:05:36.763Z,16.80
2018-06-21T07:10:39.950Z,16.90
2018-06-21T07:15:43.555Z,17.00
2018-06-21T07:20:46.783Z,17.00
2018-06-21T07:25:52.427Z,17.10
2018-06-21T07:30:55.785Z,17.00
2018-06-21T07:36:04.699Z,17.00
2018-06-21T07:41:18.759Z,17.10
2018-06-21T07:46:22.597Z,17.30
2018-06-21T07:51:25.883Z,17.50
2018-06-21T07:56:29.046Z,17.80
2018-06-21T08:01:32.246Z,17.90
2018-06-21T08:06:36.536Z,18.10
2018-06-21T08:11:39.694Z,18.00
2018-06-21T08:16:44.442Z,18.00
2018-06-21T08:21:47.623Z,17.50
2018-06-21T08:26:50.877Z,17.00
2018-06-21T08:31:54.947Z,17.10
2018-06-21T08:36:58.132Z,17.30
2018-06-21T08:42:01.286Z,17.60
2018-06-21T08:47:04.502Z,17.60
2018-06-21T08:52:07.723Z,17.70
2018-06-21T08:57:10.866Z,18.00
2018-06-21T09:02:14.043Z,18.20
2018-06-21T09:07:17.214Z,18.40
2018-06-21T09:12:20.409Z,18.10
2018-06-21T09:17:23.591Z,18.00
2018-06-21T09:22:26.762Z,18.10
2018-06-21T09:27:30.169Z,18.10
2018-06-21T09:32:33.342Z,18.10
2018-06-21T09:37:41.915Z,18.30
2018-06-21T09:42:50.630Z,18.20
2018-06-21T09:48:00.158Z,18.00
2018-06-21T09:53:09.970Z,18.00
2018-06-21T09:58:13.139Z,18.40
2018-06-21T10:03:18.379Z,18.40
2018-06-21T10:08:21.571Z,18.20
2018-06-21T10:13:24.758Z,18.00
2018-06-21T10:18:28.003Z,18.50
2018-06-21T10:23:31.185Z,18.90
2018-06-21T10:28:34.444Z,18.90
2018-06-21T10:33:38.741Z,18.90
2018-06-21T10:38:42.027Z,19.50
2018-06-21T10:43:45.301Z,19.20
2018-06-21T10:48:48.590Z,19.00
2018-06-21T10:53:55.035Z,18.70
2018-06-21T10:58:58.326Z,19.10
2018-06-21T11:04:01.495Z,19.40
2018-06-21T11:09:07.122Z,19.40
2018-06-21T11:14:10.366Z,19.10
2018-06-21T11:19:13.599Z,19.30
2018-06-21T11:24:16.854Z,19.20
2018-06-21T11:29:20.104Z,19.70
2018-06-21T11:34:23.361Z,19.80
2018-06-21T11:39:26.536Z,19.80
2018-06-21T11:44:30.856Z,19.20
2018-06-21T11:49:34.026Z,18.80
2018-06-21T11:54:42.650Z,18.90
2018-06-21T11:59:51.869Z,18.50
2018-06-21T12:04:55.103Z,18.40
2018-06-21T12:09:58.482Z,19.30
2018-06-21T12:15:01.739Z,18.90
2018-06-21T12:20:04.902Z,19.10
2018-06-21T12:25:08.097Z,19.00
2018-06-21T12:30:11.314Z,18.80
2018-06-21T12:35:14.522Z,19.70
2018-06-21T12:40:17.730Z,19.10
2018-06-21T12:45:20.974Z,18.80
2018-06-21T12:50:24.150Z,19.70
2018-06-21T12:55:27.298Z,20.10
2018-06-21T13:00:30.701Z,19.00
2018-06-21T13:05:33.840Z,18.80
2018-06-21T13:10:48.419Z,19.40
2018-06-21T13:15:51.674Z,19.30
2018-06-21T13:20:56.026Z,19.30
2018-06-21T13:25:59.851Z,19.60
2018-06-21T13:31:02.998Z,19.40
2018-06-21T13:36:06.197Z,19.60
2018-06-21T13:41:09.360Z,19.50
2018-06-21T13:46:12.519Z,19.50
2018-06-21T13:51:16.701Z,19.40
2018-06-21T13:56:19.879Z,18.90
2018-06-21T14:01:23.325Z,19.10
2018-06-21T14:06:26.514Z,19.50
2018-06-21T14:11:29.686Z,19.10
2018-06-21T14:16:33.049Z,18.90
2018-06-21T14:21:36.309Z,19.20
2018-06-21T14:26:39.985Z,19.40
2018-06-21T14:31:43.174Z,18.90
2018-06-21T14:36:46.432Z,18.60
2018-06-21T14:41:49.618Z,19.00
2018-06-21T14:46:52.776Z,19.30
2018-06-21T14:51:55.962Z,18.90
2018-06-21T14:56:59.264Z,18.50
2018-06-21T15:02:02.584Z,18.70
2018-06-21T15:07:05.791Z,18.90
2018-06-21T15:12:09.023Z,19.10
2018-06-21T15:17:12.218Z,18.60
2018-06-21T15:22:15.367Z,18.90
2018-06-21T15:27:19.145Z,18.80
2018-06-21T15:32:22.430Z,18.60
2018-06-21T15:37:25.726Z,18.20
2018-06-21T15:42:28.955Z,18.40
2018-06-21T15:47:32.168Z,18.30
2018-06-21T15:52:35.366Z,18.80
2018-06-21T15:57:38.744Z,18.70
2018-06-21T16:02:42.834Z,18.30
2018-06-21T16:07:46.048Z,18.10
2018-06-21T16:12:50.235Z,17.70
2018-06-21T16:17:53.395Z,17.60
2018-06-21T16:22:56.622Z,17.60
2018-06-21T16:27:59.705Z,17.60
2018-06-21T16:38:06.094Z,17.50
2018-06-21T16:43:09.303Z,17.50
2018-06-21T16:48:12.503Z,17.70
2018-06-21T16:53:15.699Z,17.80
2018-06-21T16:58:18.878Z,17.40
2018-06-21T17:03:22.035Z,17.20
2018-06-21T17:08:25.221Z,17.10
2018-06-21T17:13:28.575Z,17.00
2018-06-21T17:18:31.735Z,16.70
2018-06-21T17:23:34.910Z,16.60
2018-06-21T17:33:41.966Z,16.60
2018-06-21T17:38:45.143Z,16.80
2018-06-21T17:54:00.907Z,16.50
2018-06-21T17:59:04.076Z,16.60
2018-06-21T18:04:07.276Z,16.70
2018-06-21T18:09:10.960Z,16.70
2018-06-21T18:14:14.204Z,16.40
2018-06-21T18:19:17.398Z,16.30
2018-06-21T18:24:20.613Z,16.10
2018-06-21T18:29:23.786Z,16.20
2018-06-21T18:34:26.957Z,15.70
2018-06-21T18:39:30.095Z,15.50
2018-06-21T18:44:33.352Z,15.40
2018-06-21T18:49:37.375Z,15.40
2018-06-21T18:54:40.606Z,15.40
2018-06-21T18:59:43.842Z,15.50
2018-06-21T19:04:47.074Z,15.50
2018-06-21T19:09:55.550Z,15.40
2018-06-21T19:14:58.740Z,15.30
2018-06-21T19:20:01.899Z,15.20
2018-06-21T19:25:05.110Z,15.10
2018-06-21T19:30:09.255Z,15.40
2018-06-21T19:35:12.402Z,15.30
2018-06-21T19:40:15.568Z,15.30
2018-06-21T19:45:18.807Z,15.20
2018-06-21T19:50:21.993Z,15.30
2018-06-21T19:55:25.191Z,15.30
2018-06-21T20:00:28.367Z,15.10
2018-06-21T20:05:31.598Z,15.00
2018-06-21T20:10:34.767Z,15.00
2018-06-21T20:15:53.950Z,14.90
2018-06-21T20:20:57.140Z,14.90
2018-06-21T20:26:00.359Z,14.70
2018-06-21T20:31:03.842Z,14.70
2018-06-21T20:36:07.025Z,14.60
2018-06-21T20:41:10.674Z,14.70
2018-06-21T20:46:13.842Z,14.60
2018-06-21T20:51:16.993Z,14.50
2018-06-21T20:56:20.132Z,14.50
2018-06-21T21:01:23.262Z,14.30
2018-06-21T21:06:26.415Z,14.20
2018-06-21T21:11:29.542Z,14.20
2018-06-21T21:16:32.695Z,14.30
2018-06-21T21:21:35.914Z,14.30
2018-06-21T21:26:39.146Z,14.10
2018-06-21T21:31:42.313Z,13.70
2018-06-21T21:36:45.452Z,13.90
2018-06-21T21:41:48.590Z,14.00
2018-06-21T21:46:51.726Z,14.10
2018-06-21T21:51:54.870Z,14.00
2018-06-21T21:56:58.002Z,13.70
2018-06-21T22:02:01.150Z,13.80
2018-06-21T22:07:04.835Z,13.60
2018-06-21T22:12:08.309Z,13.60
2018-06-21T22:17:11.438Z,13.50
2018-06-21T22:22:14.598Z,13.50
2018-06-21T22:27:17.710Z,13.40
2018-06-21T22:32:20.868Z,13.50
2018-06-21T22:37:24.019Z,13.20
2018-06-21T22:42:27.207Z,13.20
2018-06-21T22:47:30.416Z,13.00
2018-06-21T22:52:33.613Z,12.80
2018-06-21T22:57:36.804Z,12.90
2018-06-21T23:02:39.887Z,12.90
2018-06-21T23:07:43.038Z,12.90
2018-06-21T23:12:46.199Z,12.80
2018-06-21T23:17:49.344Z,12.70
2018-06-21T23:22:53.506Z,12.70
2018-06-21T23:27:56.679Z,12.60
2018-06-21T23:32:59.821Z,12.70
2018-06-21T23:38:02.946Z,12.80
2018-06-21T23:43:06.146Z,12.70
2018-06-21T23:48:09.318Z,12.70
2018-06-21T23:53:12.495Z,12.60
2018-06-21T23:58:15.637Z,12.60
